Date,TemperatureHighF,TemperatureAvgF,TemperatureLowF,DewpointHighF,DewpointAvgF,DewpointLowF,HumidityHigh,HumidityAvg,HumidityLow,PressureMaxIn,PressureMinIn,WindSpeedMaxMPH,WindSpeedAvgMPH,GustSpeedMaxMPH,PrecipitationSumIn
2013-1-11,94.8,82.6,69.4,72.5,68.4,65.0,88,65,45,29.56,29.36,0,0,0,0.00
2013-1-12,100.8,84.7,74.7,71.5,67.8,60.2,84,60,29,29.60,29.36,0,0,0,0.00
2013-1-13,82.8,77.0,71.4,72.1,69.9,67.7,91,79,69,29.59,29.39,0,0,0,0.00
2013-1-14,74.3,71.9,68.9,68.0,61.0,54.0,89,70,50,29.82,29.53,0,0,0,0.00
2013-1-15,79.0,73.1,68.7,63.6,61.7,58.6,79,68,56,29.82,29.69,0,0,0,0.00
2013-1-16,77.7,77.1,76.6,65.3,64.9,64.6,68,66,64,29.65,29.65,0,0,0,0.00
2013-1-17,82.2,78.3,77.7,72.3,65.6,64.6,72,65,64,29.58,29.40,0,0,0,0.00
2013-1-19,78.6,76.6,75.7,69.7,66.6,64.8,74,71,69,29.71,29.46,0,0,0,0.00
2013-1-20,75.7,75.7,75.7,64.9,64.9,64.9,69,69,69,29.74,29.66,0,0,0,0.00
2013-1-22,76.1,76.1,76.1,70.3,70.3,70.3,82,82,82,29.57,29.54,0,0,0,0.00
2013-1-23,75.0,74.2,73.4,70.3,69.5,68.7,90,85,83,29.73,29.62,0,0,0,0.00
2013-1-24,78.3,74.0,71.4,73.9,69.6,67.7,91,86,82,29.74,29.65,0,0,0,0.00
2013-1-25,75.4,73.3,72.3,72.6,70.8,69.6,92,92,91,29.66,29.51,0,0,0,0.00
2013-1-26,82.0,78.2,75.9,78.4,73.6,72.5,90,86,78,29.61,29.52,0,0,0,0.00
2013-1-27,78.1,75.6,74.3,74.4,73.1,72.4,97,92,84,29.54,29.46,0,0,0,0.00
2013-1-28,74.3,73.4,71.6,73.5,72.2,70.1,100,96,95,29.52,29.31,0,0,0,0.00
2013-1-29,75.9,73.3,71.8,75.7,71.5,66.6,99,94,74,29.53,29.23,0,0,0,0.00
2013-1-30,75.9,72.8,72.1,71.2,69.3,68.6,92,89,85,29.69,29.55,0,0,0,0.00
2013-1-31,94.6,79.1,73.4,85.3,70.2,57.4,93,76,51,29.68,29.43,2,0,18,0.00
2013-2-1,96.8,73.3,64.6,76.8,69.3,64.3,100,89,42,29.45,29.36,0,0,0,0.00
2013-2-2,71.8,63.8,60.3,65.8,60.6,54.8,100,90,64,29.63,29.36,0,0,0,0.00
2013-2-3,81.1,69.0,59.2,63.4,56.7,51.9,84,67,42,29.77,29.56,0,0,0,0.00
2013-2-4,84.6,71.4,62.6,65.8,62.7,58.5,97,76,42,29.94,29.74,0,0,0,0.00
2013-2-5,93.9,74.7,61.3,66.9,63.2,57.4,100,72,33,29.94,29.88,0,0,0,0.00
2013-2-6,94.6,77.0,62.4,69.0,62.0,55.6,100,66,32,29.90,29.76,0,0,0,0.00
2013-2-7,95.7,76.7,59.0,68.1,61.9,58.7,100,66,31,29.79,29.69,0,0,0,0.00
2013-2-8,103.1,80.1,59.7,69.1,64.3,59.5,100,65,29,29.78,29.69,0,0,0,0.00
2013-2-9,107.2,81.6,63.7,71.4,67.2,58.2,100,68,24,29.75,29.60,0,0,0,0.00
2013-2-10,104.4,80.4,68.5,74.4,70.2,66.8,100,76,34,29.83,29.60,0,0,0,0.00
2013-2-11,76.5,70.4,66.0,69.8,68.2,65.8,100,93,77,29.82,29.73,0,0,0,0.00
2013-2-12,87.1,73.4,67.6,74.6,66.8,62.3,100,81,50,29.89,29.74,0,0,0,0.00
2013-2-13,93.2,74.9,62.8,68.9,62.1,56.8,100,69,34,29.94,29.85,0,0,0,0.00
2013-2-14,97.0,74.9,59.5,66.5,61.8,57.9,100,69,29,29.91,29.80,0,0,0,0.00
2013-2-15,85.1,73.6,65.1,72.0,65.9,60.3,100,79,45,29.88,29.81,0,0,0,0.00
2013-2-16,93.7,76.4,64.8,82.6,66.3,60.1,100,74,37,29.88,29.81,0,0,0,0.00
2013-2-17,91.9,73.4,62.6,74.1,63.6,57.9,100,75,40,29.88,29.81,0,0,0,0.00
2013-2-18,95.2,75.5,61.5,75.0,64.9,59.6,100,75,32,29.83,29.72,0,0,0,0.00
2013-2-19,97.5,78.3,62.8,71.8,66.9,61.9,100,73,39,29.73,29.63,0,0,0,0.00
2013-2-20,92.1,76.6,66.7,75.1,64.6,50.3,100,70,44,29.77,29.64,0,0,0,0.00
2013-2-21,91.9,76.3,67.6,73.7,61.2,47.8,95,61,45,29.77,29.69,0,0,0,0.00
2013-2-22,85.5,72.5,65.7,70.4,67.5,64.4,100,85,57,29.75,29.67,0,0,0,0.00
2013-2-23,80.2,72.3,68.2,77.7,71.4,67.9,100,97,82,29.67,29.43,0,0,0,0.00
2013-2-24,101.5,81.6,69.3,80.6,73.2,69.0,100,80,39,29.69,29.50,0,0,0,0.00
2013-2-25,102.0,81.8,70.5,76.8,72.2,70.6,100,76,40,29.78,29.65,0,0,0,0.00
2013-2-26,94.8,79.2,70.3,74.6,69.7,65.8,96,75,42,29.79,29.70,0,0,0,0.01
2013-2-27,100.8,80.3,68.9,70.0,67.1,61.3,93,69,31,29.74,29.56,0,0,0,0.00
2013-2-28,100.9,77.1,66.0,72.8,67.6,65.0,100,77,36,29.59,29.43,0,0,0,0.00
2013-3-1,68.7,65.8,63.3,68.5,65.5,62.5,99,99,97,29.73,29.47,0,0,0,0.00
2013-3-2,66.4,64.8,62.6,66.1,64.2,61.8,99,98,97,29.83,29.72,0,0,0,0.00
2013-3-3,86.4,72.4,66.4,86.1,72.1,66.1,99,99,99,29.85,29.77,0,0,0,0.00
2013-3-4,89.1,74.9,67.1,88.9,74.7,66.8,99,99,99,29.88,29.81,0,0,0,0.00
2013-3-5,90.3,77.3,65.8,71.3,65.4,61.1,99,71,39,29.88,29.81,0,0,0,0.00
2013-3-6,95.2,78.1,68.0,67.8,65.2,61.3,93,68,34,29.86,29.76,0,0,0,0.00
2013-3-7,96.3,75.8,60.8,69.2,63.3,60.0,100,71,32,29.85,29.75,0,0,0,0.00
2013-3-8,92.8,75.3,61.9,69.5,64.7,60.6,100,74,38,29.90,29.81,0,0,0,0.00
2013-3-9,92.3,76.8,68.4,69.3,65.6,60.7,92,71,39,29.88,29.79,0,0,0,0.14
2013-3-10,96.4,76.3,62.2,70.9,64.3,60.5,100,72,31,29.84,29.75,0,0,0,0.00
2013-3-11,95.7,76.3,63.7,71.7,66.0,62.6,100,74,37,29.87,29.77,0,0,0,0.00
2013-3-12,94.1,75.9,63.5,71.8,64.7,59.8,100,73,35,29.86,29.74,0,0,0,0.00
2013-3-13,96.6,74.6,59.5,68.7,63.3,59.3,100,73,30,29.75,29.55,0,0,0,0.00
2013-3-14,93.4,79.7,64.0,71.2,65.6,57.2,94,66,33,29.66,29.53,0,0,0,0.00
2013-3-15,75.6,71.8,68.5,72.2,69.8,68.3,100,93,84,29.75,29.63,0,0,0,0.00
2013-3-16,98.1,77.8,63.9,71.8,67.9,63.0,100,76,37,29.73,29.47,0,0,0,0.00
2013-3-17,79.5,72.2,65.8,71.1,58.3,50.1,100,65,39,29.80,29.46,0,0,0,0.00
2013-3-18,80.2,67.1,57.6,60.5,56.5,52.0,99,72,39,29.91,29.77,0,0,0,0.00
2013-3-19,87.6,69.0,56.7,62.7,58.6,53.5,100,74,33,30.00,29.86,0,0,0,0.00
2013-3-20,91.6,70.9,57.2,69.0,61.2,56.9,100,76,37,29.99,29.88,0,0,0,0.00
2013-3-21,95.9,74.3,57.2,67.2,61.4,54.3,100,70,29,29.89,29.65,0,0,0,0.00
2013-3-22,96.8,79.4,66.4,67.6,65.5,63.9,95,66,36,29.70,29.62,0,0,0,0.00
2013-3-23,97.7,82.1,72.9,72.1,65.5,61.0,91,60,33,29.74,29.63,0,0,0,0.00
2013-3-24,98.6,81.3,67.5,73.4,66.7,42.3,99,69,21,29.73,29.57,0,0,0,0.00
2013-3-25,89.4,75.7,63.0,70.9,65.3,54.7,100,73,47,29.81,29.66,0,0,0,0.00
2013-3-26,100.0,78.5,66.6,73.4,62.9,51.3,85,60,39,29.82,29.70,0,0,0,0.00
2013-3-27,101.7,79.6,64.6,72.0,68.4,64.3,100,74,34,29.82,29.70,0,0,0,0.00
2013-3-28,99.1,80.4,65.8,73.4,66.6,61.1,100,69,29,29.76,29.60,0,0,0,0.00
2013-3-29,80.2,69.5,60.8,70.9,57.0,50.7,100,67,43,29.81,29.63,0,0,0,0.00
2013-3-30,89.6,69.6,53.4,64.9,57.8,52.8,100,71,32,29.79,29.59,0,0,0,0.00
2013-3-31,85.5,70.0,60.8,65.2,59.4,50.6,100,73,31,29.71,29.50,0,0,0,0.00
2013-4-1,88.9,69.8,60.3,65.9,62.7,60.0,100,81,40,29.77,29.69,0,0,0,0.00
2013-4-2,94.5,70.6,56.7,84.1,65.9,56.4,100,86,69,29.73,29.63,0,0,0,0.00
2013-4-3,68.7,64.2,60.1,67.7,63.6,59.8,100,98,93,29.94,29.72,0,0,0,0.04
2013-4-4,76.1,65.6,60.3,69.5,62.4,58.2,100,90,62,30.10,29.94,0,0,0,0.00
2013-4-5,86.7,69.6,60.6,64.4,59.4,53.5,100,74,38,30.12,30.05,0,0,0,0.00
2013-4-6,87.4,68.1,60.1,66.1,60.1,50.8,100,78,39,30.07,29.94,0,0,0,0.00
2013-4-7,86.9,66.9,55.4,75.8,57.3,45.8,97,72,45,29.95,29.86,0,0,0,0.00
2013-4-8,84.6,66.2,53.8,73.8,60.2,53.0,100,82,60,29.99,29.90,0,0,0,0.00
2013-4-9,87.3,66.2,58.5,70.6,59.2,49.8,100,79,50,30.00,29.92,0,0,0,0.00
2013-4-10,88.7,68.9,55.2,82.1,61.1,54.4,100,81,34,29.96,29.87,0,0,0,0.00
2013-4-11,90.9,68.7,52.3,65.4,56.5,50.1,100,71,29,29.96,29.85,0,0,0,0.00
2013-4-12,91.4,71.3,57.9,65.8,55.6,45.8,88,59,38,29.99,29.90,0,0,0,0.00
2013-4-13,91.0,70.8,55.8,70.6,60.5,55.5,100,75,38,29.89,29.70,0,0,0,0.00
2013-4-14,92.3,71.0,55.0,68.0,60.0,54.2,100,75,31,29.69,29.57,0,0,0,0.00
2013-4-15,94.1,71.0,55.9,93.3,60.5,37.1,100,77,32,29.56,29.07,0,0,0,0.00
2013-4-16,74.5,67.3,63.1,43.5,37.2,33.6,33,33,33,29.29,29.15,0,0,0,0.00
2013-4-17,81.0,66.8,55.0,66.6,48.7,26.5,100,54,33,29.71,29.27,0,0,0,0.00
2013-4-18,87.8,69.0,57.6,65.8,55.9,45.9,94,65,38,29.66,29.57,0,0,0,0.00
2013-4-19,76.3,64.1,57.4,60.4,49.1,40.9,100,63,32,29.65,29.56,0,0,0,0.00
2013-4-20,63.5,58.7,57.2,62.7,55.3,39.7,100,90,48,29.68,29.52,0,0,0,0.00
2013-4-21,82.6,61.9,50.5,55.9,53.3,48.9,100,78,34,29.69,29.59,0,0,0,0.00
2013-4-22,86.4,66.4,55.2,63.4,53.0,40.2,100,69,29,29.57,29.44,0,0,0,0.00
2013-4-23,83.3,64.2,47.8,57.4,50.2,42.6,100,69,25,29.70,29.54,0,0,0,0.00
2013-4-24,84.6,63.5,48.2,76.6,59.5,47.9,100,88,75,29.80,29.69,0,0,0,0.00
2013-4-25,83.7,63.1,49.1,81.2,61.5,48.8,100,95,88,29.89,29.76,0,0,0,0.00
2013-4-26,86.7,63.6,49.5,81.8,60.0,46.1,100,88,81,29.92,29.81,0,0,0,0.00
2013-4-27,89.1,67.5,48.4,81.8,63.4,48.1,100,88,75,29.88,29.76,0,0,0,0.00
2013-4-28,90.0,69.2,53.2,53.9,47.8,40.4,100,55,19,29.82,29.73,0,0,0,0.00
2013-4-29,94.6,63.1,50.5,66.9,47.2,34.1,100,60,22,29.92,29.80,0,0,0,0.00
2013-4-30,81.0,70.2,64.8,69.1,66.5,64.5,100,89,61,29.98,29.88,0,0,0,0.00
2013-5-1,91.4,73.1,61.2,67.0,61.2,52.2,100,73,28,29.86,29.63,0,0,0,0.00
2013-5-2,71.8,65.4,58.5,62.8,52.6,47.6,83,64,43,30.03,29.76,0,0,0,0.00
2013-5-3,81.9,62.9,48.7,59.3,51.0,43.2,100,73,26,30.02,29.83,0,0,0,0.00
2013-5-4,84.2,65.7,51.4,53.2,46.0,37.3,100,53,22,29.93,29.70,0,0,0,0.00
2013-5-5,71.4,62.1,52.7,43.8,35.5,27.2,37,37,37,29.95,29.86,0,0,0,0.00
2013-5-6,72.7,59.7,48.2,44.9,33.4,23.2,37,37,37,30.01,29.90,0,0,0,0.00
2013-5-7,79.2,62.1,53.1,50.7,35.6,27.5,37,37,37,30.09,29.97,0,0,0,0.00
2013-5-8,58.3,54.7,51.6,32.1,29.0,26.2,37,37,37,30.08,30.06,0,0,0,0.00
2013-5-9,85.3,63.3,47.5,65.9,53.6,47.2,100,77,31,30.12,30.04,0,0,0,0.00
2013-5-10,83.3,61.6,45.3,67.0,55.5,44.5,100,83,55,30.12,30.04,0,0,0,0.00
2013-5-11,78.8,63.6,53.6,65.3,59.4,52.8,100,88,58,30.10,30.03,0,0,0,0.00
2013-5-12,86.0,63.9,49.1,83.2,62.2,48.8,100,94,88,30.04,29.88,0,0,0,0.00
2013-5-13,79.7,62.4,53.8,76.6,59.6,50.9,97,90,87,29.86,29.64,0,0,0,0.00
2013-5-14,77.5,61.7,55.8,71.7,60.0,55.1,100,95,78,29.63,29.54,0,0,0,0.00
2013-5-15,74.5,61.7,55.8,74.2,61.5,55.5,99,99,99,29.65,29.53,0,0,0,0.00
2013-5-16,77.7,64.3,53.8,77.5,64.0,53.5,99,99,99,29.57,29.47,0,0,0,0.00
2013-5-17,74.7,60.0,51.1,74.4,59.7,50.8,99,99,99,29.63,29.52,0,0,0,0.00
2013-5-18,73.0,56.3,45.3,45.1,41.6,36.0,85,61,26,29.67,29.57,0,0,0,0.00
2013-5-19,71.4,57.2,51.3,55.9,42.6,37.0,58,58,58,29.71,29.63,22,0,24,0.00
2013-5-20,73.0,55.1,43.2,57.4,40.6,29.4,58,58,58,29.75,29.66,0,0,0,0.00
2013-5-21,58.5,55.4,45.5,58.2,55.1,44.7,99,99,97,29.70,29.58,0,0,0,0.00
2013-5-22,58.5,58.2,55.2,58.2,57.9,54.4,100,99,95,29.65,29.47,0,0,0,0.00
2013-5-23,63.7,57.3,52.9,61.9,55.9,52.8,100,95,80,29.64,29.45,0,0,0,0.00
2013-5-24,69.3,65.0,57.2,62.5,58.2,50.8,89,79,70,29.78,29.63,0,0,0,0.00
2013-5-25,69.6,63.1,56.3,63.9,57.1,49.9,82,81,79,29.93,29.79,0,0,0,0.00
2013-5-26,72.5,70.6,64.6,66.7,64.9,59.0,82,82,82,29.95,29.88,0,0,0,0.00
2013-5-27,72.5,66.1,56.8,66.7,62.9,56.6,100,90,82,30.10,29.92,12,0,12,0.00
2013-5-28,71.8,60.5,51.6,71.5,55.7,50.0,100,86,67,30.18,30.08,0,0,0,0.00
2013-5-29,60.6,57.3,53.6,50.0,46.9,43.3,68,68,68,30.14,30.04,0,0,0,0.00
2013-5-30,56.5,56.5,56.5,46.1,46.1,46.1,68,68,68,30.09,29.99,0,0,0,0.00
2013-5-31,56.5,56.5,56.5,46.1,46.1,46.1,68,68,68,30.04,29.94,0,0,0,0.00
2013-6-1,59.7,59.4,59.2,59.5,59.2,58.9,99,99,99,29.66,29.63,0,0,0,0.00
2013-6-2,64.9,57.2,53.6,65.0,56.0,48.3,100,96,74,29.65,29.35,0,0,0,0.00
2013-6-3,68.7,57.7,50.2,51.6,44.7,37.7,91,63,48,29.84,29.65,0,0,0,0.00
2013-6-4,53.6,50.4,43.2,40.9,37.9,31.0,62,62,62,29.96,29.86,0,0,0,0.00
2013-6-5,55.8,53.7,53.1,42.9,41.0,40.4,62,62,62,29.97,29.87,0,0,0,0.00
2013-6-6,71.1,61.0,50.4,54.3,46.2,37.8,63,58,52,29.91,29.82,0,0,0,0.00
2013-6-7,79.3,69.3,57.6,59.7,51.8,39.6,55,54,51,29.93,29.75,0,0,0,0.00
2013-6-8,65.1,61.5,52.2,46.6,43.3,34.6,51,51,51,30.12,29.96,0,0,0,0.00
2013-6-9,64.9,63.8,58.3,46.4,45.3,40.2,51,51,51,30.05,29.90,0,0,0,0.00
2013-6-10,62.1,56.3,45.9,43.7,38.4,28.8,51,51,51,29.88,29.75,0,0,0,0.00
2013-6-11,57.6,52.1,47.8,39.6,34.6,30.6,51,51,51,29.82,29.72,0,0,0,0.00
2013-6-12,75.0,61.2,48.6,75.1,61.2,48.3,100,100,99,29.68,29.46,0,0,0,0.00
2013-6-13,67.8,67.8,67.8,67.9,67.9,67.9,100,100,100,29.46,29.37,0,0,0,0.00
2013-6-14,67.8,67.8,67.8,67.9,67.9,67.9,100,100,100,29.42,29.33,0,0,0,0.00
2013-6-15,70.0,64.0,56.3,67.9,58.1,49.9,100,81,77,29.59,29.40,0,0,0,0.00
2013-6-16,68.9,57.4,45.1,58.7,48.8,41.1,96,75,52,29.62,29.54,0,0,0,0.00
2013-6-17,66.7,53.6,43.7,49.4,45.3,41.6,100,76,47,29.52,29.44,0,0,0,0.00
2013-6-18,70.0,55.2,40.5,61.3,49.9,40.2,100,83,70,29.66,29.51,3,0,3,0.00
2013-6-19,65.8,55.0,49.8,52.7,49.9,47.0,100,84,54,29.90,29.67,0,0,0,0.00
2013-6-20,64.4,55.4,50.4,50.8,45.5,36.6,80,70,59,29.90,29.80,24,2,24,0.00
2013-6-21,66.6,52.8,45.3,52.1,41.5,31.8,100,66,56,29.83,29.75,0,0,0,0.00
2013-6-22,67.5,52.7,39.9,56.2,45.8,39.7,100,79,54,29.96,29.82,49,1,49,1.13
2013-6-23,63.1,54.8,49.5,51.6,43.7,38.6,66,66,66,30.02,29.93,55,6,55,0.00
2013-6-24,73.0,57.6,48.0,54.9,42.2,25.5,70,58,41,29.90,29.67,0,0,0,0.00
2013-6-25,68.4,52.4,43.5,51.4,36.0,21.4,100,57,41,29.69,29.61,0,0,0,0.00
2013-6-26,70.0,57.8,42.8,62.0,54.6,42.8,100,90,68,29.81,29.64,0,0,0,0.00
2013-6-27,61.5,58.9,56.7,61.5,58.6,56.4,100,99,94,29.86,29.79,0,0,0,0.00
2013-6-28,70.3,58.3,54.7,70.4,58.0,53.8,100,99,94,29.92,29.83,0,0,0,0.00
2013-6-29,68.0,59.1,55.2,67.1,58.7,54.4,100,98,96,29.93,29.85,0,0,0,0.00
2013-6-30,57.9,55.4,52.2,57.7,54.9,52.2,100,98,97,29.93,29.87,0,0,0,0.00
2013-7-1,68.4,57.0,52.5,59.7,55.1,52.5,100,94,71,29.90,29.83,0,0,0,0.00
2013-7-2,75.9,57.5,48.0,55.1,51.5,47.8,100,83,45,29.91,29.83,0,0,0,0.00
2013-7-3,74.7,53.3,40.8,58.7,47.5,40.6,100,84,40,29.91,29.83,7,0,97,0.00
2013-7-4,77.9,58.0,41.7,53.7,48.5,41.5,100,76,38,29.80,29.59,0,0,0,0.00
2013-7-5,78.4,61.2,49.1,56.6,44.9,35.3,99,63,24,29.71,29.49,0,0,0,0.00
2013-7-6,68.2,52.9,39.2,39.7,35.2,31.3,90,55,26,29.88,29.74,0,0,0,0.00
2013-7-7,73.4,53.6,39.2,41.3,36.2,28.9,91,57,20,30.05,29.89,0,0,0,0.00
2013-7-8,74.5,50.2,34.5,46.8,33.5,22.5,74,55,26,30.14,30.04,0,0,0,0.00
2013-7-9,63.9,52.2,40.8,54.8,46.5,33.2,100,81,70,30.23,30.11,0,0,0,0.00
2013-7-10,69.1,55.4,49.8,56.8,50.0,40.0,100,84,61,30.20,30.12,0,0,0,0.00
2013-7-11,72.1,54.8,42.6,64.6,50.4,41.4,100,86,73,30.22,30.13,0,0,0,0.00
2013-7-12,70.3,53.3,42.3,55.2,45.7,34.6,100,76,55,30.14,30.01,0,0,0,0.00
2013-7-13,73.2,54.1,40.5,61.4,48.9,40.2,100,84,56,30.05,29.96,0,0,0,0.00
2013-7-14,78.3,55.4,41.2,59.3,46.0,35.5,100,73,35,30.02,29.96,0,0,0,0.00
2013-7-15,70.7,58.6,51.8,58.7,55.3,51.8,100,90,60,29.95,29.87,0,0,0,0.00
2013-7-16,78.1,61.2,52.5,62.7,55.4,52.5,100,84,43,29.96,29.88,0,0,0,0.00
2013-7-17,83.7,63.1,50.2,63.9,54.6,49.9,100,79,37,29.93,29.85,0,0,0,0.00
2013-7-18,83.8,61.9,50.5,60.8,55.2,50.3,100,82,40,29.90,29.79,0,0,0,0.00
2013-7-19,77.2,60.5,51.6,62.3,56.6,51.4,100,89,46,29.75,29.59,0,0,0,0.00
2013-7-20,74.8,61.5,53.4,58.3,50.5,35.0,100,72,37,29.58,29.40,0,0,0,0.00
2013-7-21,68.2,53.5,41.9,42.1,34.9,26.8,91,54,21,29.74,29.59,0,0,0,0.00
2013-7-22,71.2,52.2,35.1,44.5,34.5,29.0,100,58,21,29.81,29.71,0,0,0,0.00
2013-7-23,70.7,55.0,41.5,42.7,38.1,35.1,83,55,29,29.85,29.73,0,0,0,0.00
2013-7-24,66.7,58.2,48.9,47.9,44.1,39.1,74,60,50,30.03,29.86,0,0,0,0.00
2013-7-25,77.4,56.5,43.7,48.5,45.2,40.0,97,70,30,30.08,30.00,0,0,0,0.00
2013-7-26,73.8,53.6,39.4,48.8,41.8,37.4,100,71,28,30.00,29.90,0,0,0,0.00
2013-7-27,78.3,54.9,38.3,55.1,41.7,26.2,100,67,36,30.09,29.99,0,0,0,0.00
2013-7-28,74.1,54.2,41.7,54.8,36.9,20.3,97,54,42,30.09,29.97,0,0,0,0.00
2013-7-29,81.5,58.0,41.0,71.7,53.1,40.7,100,85,70,29.97,29.85,0,0,0,0.00
2013-7-30,81.1,60.7,45.5,71.7,53.4,38.0,96,77,69,29.82,29.72,0,0,0,0.00
2013-7-31,66.0,59.1,55.2,61.1,55.5,49.2,100,88,71,29.91,29.79,0,0,0,0.00
2013-8-1,73.8,56.7,44.6,54.2,49.5,43.8,100,80,44,29.88,29.79,0,0,0,0.00
2013-8-2,76.5,56.2,41.0,54.2,45.1,40.1,100,72,33,29.78,29.59,0,0,0,0.00
2013-8-3,72.9,59.7,44.6,46.8,40.3,37.9,97,51,29,29.70,29.57,0,0,0,0.00
2013-8-4,74.5,58.4,46.4,44.9,42.0,40.1,81,56,33,29.71,29.57,0,0,0,0.00
2013-8-5,73.6,57.9,46.0,42.4,39.6,37.3,78,54,28,29.75,29.64,0,0,0,0.00
2013-8-6,80.4,61.9,45.7,57.8,45.7,38.5,87,58,43,29.70,29.50,0,0,0,0.00
2013-8-7,77.9,60.4,52.7,53.4,44.1,34.6,100,57,38,29.60,29.47,0,0,0,0.00
2013-8-8,62.2,53.6,48.6,62.0,53.4,48.3,100,99,99,29.64,29.37,0,0,0,0.00
2013-8-9,73.9,61.4,51.1,73.7,59.5,38.2,99,95,43,29.73,29.62,0,0,0,0.00
2013-8-10,82.2,64.9,52.7,48.4,41.2,36.2,82,46,20,29.70,29.62,0,0,0,0.00
2013-8-11,83.5,60.2,41.9,66.2,51.7,41.3,100,77,53,29.73,29.61,0,0,0,0.00
2013-8-12,88.5,64.0,47.7,53.9,45.7,34.4,97,60,19,29.57,29.29,0,0,0,0.00
2013-8-13,78.1,60.4,45.1,45.8,36.2,27.5,87,46,19,29.68,29.56,0,0,0,0.00
2013-8-14,81.3,61.3,47.8,38.1,29.7,24.1,43,32,15,29.67,29.48,0,0,0,0.00
2013-8-15,69.8,58.9,45.1,37.7,29.7,24.6,50,34,19,29.86,29.49,0,0,0,0.00
2013-8-16,80.2,56.2,35.6,52.1,35.0,18.8,90,49,21,29.88,29.68,0,0,0,0.00
2013-8-17,79.7,62.8,47.7,65.6,54.0,36.2,100,76,35,29.62,29.44,0,0,0,0.00
2013-8-18,61.5,51.1,49.1,49.7,39.3,35.9,67,64,49,29.75,29.60,0,0,0,0.00
2013-8-19,80.6,62.1,48.0,70.0,52.1,38.5,70,70,67,29.61,29.41,0,0,0,0.00
2013-8-20,72.7,56.1,44.6,42.0,29.2,12.9,70,42,14,29.69,29.53,0,0,0,0.00
2013-8-21,71.4,54.5,42.4,40.6,22.5,7.3,59,31,20,29.68,29.60,0,0,0,0.00
2013-8-22,72.7,56.1,39.7,38.8,35.3,29.6,88,50,21,29.63,29.51,0,0,0,0.00
2013-8-23,74.5,65.3,57.6,41.6,40.1,37.4,53,40,26,29.63,29.49,0,0,0,0.00
2013-8-24,77.7,62.7,52.9,69.2,50.3,33.0,91,65,45,29.89,29.65,0,0,0,0.00
2013-8-25,84.0,62.3,43.0,56.3,40.5,25.8,92,55,18,29.94,29.81,0,0,0,0.00
2013-8-26,80.6,56.5,41.7,47.4,22.9,8.5,40,27,25,29.92,29.85,0,0,0,0.00